Time;durP1;ratioP1;P1;durP2;ratioP2;P2;SDS_P1;SDS_P2;PMS_P1;PMS_P2;Temp;Humidity;BMP_temperature;BMP_pressure;BME280_temperature;BME280_humidity;BME280_pressure;Samples;Min_cycle;Max_cycle;Signal;HPM_P1;HPM_P2
2022/07/25 00:01:43;;;;;;;11.88;8.00;;;;;;;22.05;71.90;98810.19;5100750;28;20020;-62
2022/07/25 00:04:11;;;;;;;9.70;8.32;;;;;;;21.97;72.02;98814.44;5101820;28;20061;-63
2022/07/25 00:06:37;;;;;;;14.95;8.20;;;;;;;21.93;72.42;98811.19;5101910;28;20254;-62
2022/07/25 00:09:03;;;;;;;13.45;8.57;;;;;;;21.83;72.79;98797.97;5101922;28;20024;-62
2022/07/25 00:11:29;;;;;;;10.52;8.23;;;;;;;21.95;72.47;98808.44;5101699;28;20028;-62
2022/07/25 00:13:55;;;;;;;10.80;8.05;;;;;;;21.88;72.70;98801.03;5092080;28;20321;-62
2022/07/25 00:16:21;;;;;;;13.38;8.25;;;;;;;21.80;73.28;98800.84;5096211;28;20031;-63
2022/07/25 00:18:46;;;;;;;10.27;8.00;;;;;;;21.71;73.87;98798.97;5101826;28;20043;-62
2022/07/25 00:21:12;;;;;;;8.80;7.85;;;;;;;21.77;72.97;98797.63;5085143;28;20036;-63
2022/07/25 00:23:38;;;;;;;12.18;8.23;;;;;;;21.76;73.50;98793.31;5104135;28;20028;-62
2022/07/25 00:26:03;;;;;;;13.23;8.13;;;;;;;21.75;74.04;98789.84;5104280;28;20324;-62
2022/07/25 00:28:29;;;;;;;12.25;8.80;;;;;;;21.75;73.90;98797.75;5094758;28;20044;-62
2022/07/25 00:30:55;;;;;;;9.40;8.43;;;;;;;21.67;73.96;98794.91;5097050;28;20048;-62
2022/07/25 00:33:20;;;;;;;9.88;8.20;;;;;;;21.60;74.32;98799.00;5087280;28;20085;-62
2022/07/25 00:35:46;;;;;;;10.50;8.20;;;;;;;21.59;74.43;98795.56;5105332;28;20047;-62
2022/07/25 00:38:12;;;;;;;10.07;8.52;;;;;;;21.50;74.58;98778.63;5104905;28;20016;-62
2022/07/25 00:40:37;;;;;;;12.82;8.10;;;;;;;21.50;74.94;98791.00;5103925;28;20031;-63
2022/07/25 00:43:03;;;;;;;11.27;8.60;;;;;;;21.42;75.12;98783.72;5104337;28;20078;-62
2022/07/25 00:45:29;;;;;;;13.05;8.63;;;;;;;21.44;75.10;98786.22;5109624;28;20020;-62
2022/07/25 00:47:55;;;;;;;10.38;7.80;;;;;;;21.51;74.87;98790.03;5105063;28;20027;-62
2022/07/25 00:50:20;;;;;;;10.02;8.23;;;;;;;21.50;74.92;98789.19;5105231;28;20081;-62
2022/07/25 00:52:47;;;;;;;11.32;8.23;;;;;;;21.43;75.52;98777.47;5103841;28;20040;-62
2022/07/25 00:55:12;;;;;;;12.73;8.50;;;;;;;21.42;75.44;98781.09;5105060;28;20028;-62
2022/07/25 00:57:38;;;;;;;9.63;8.57;;;;;;;21.38;75.32;98774.38;5103651;28;20024;-62
2022/07/25 01:00:07;;;;;;;12.20;8.50;;;;;;;21.33;75.69;98779.19;5104719;28;20047;-63
2022/07/25 01:02:33;;;;;;;14.95;8.77;;;;;;;21.08;76.34;98754.84;5104698;28;20027;-63
2022/07/25 01:04:59;;;;;;;12.85;8.65;;;;;;;21.21;76.63;98773.13;5104834;28;20028;-63
2022/07/25 01:07:25;;;;;;;11.48;7.97;;;;;;;21.13;77.16;98780.78;5103620;28;20108;-63
2022/07/25 01:09:50;;;;;;;11.05;9.27;;;;;;;21.13;77.04;98775.53;5104643;28;20032;-63
2022/07/25 01:12:16;;;;;;;10.27;8.35;;;;;;;21.08;77.30;98775.91;5092767;28;20204;-62
2022/07/25 01:14:42;;;;;;;10.80;8.00;;;;;;;21.09;77.04;98774.09;5103435;28;20339;-63
2022/07/25 01:17:07;;;;;;;13.23;8.48;;;;;;;21.09;77.28;98779.34;5104817;28;20055;-62
2022/07/25 01:19:33;;;;;;;12.38;8.45;;;;;;;21.15;76.95;98784.13;5103314;28;20020;-62
2022/07/25 01:21:59;;;;;;;10.13;8.02;;;;;;;21.12;77.11;98777.31;5104401;28;20024;-61
2022/07/25 01:24:24;;;;;;;11.02;8.18;;;;;;;21.13;77.28;98781.59;5104495;28;20035;-62
2022/07/25 01:26:50;;;;;;;12.98;7.80;;;;;;;21.10;77.26;98775.78;5104297;28;20026;-62
2022/07/25 01:29:15;;;;;;;12.00;8.45;;;;;;;20.94;77.88;98776.16;5103222;28;20031;-63
2022/07/25 01:31:41;;;;;;;11.95;8.52;;;;;;;20.99;77.41;98792.41;5104070;28;20034;-62
2022/07/25 01:34:06;;;;;;;10.48;7.97;;;;;;;20.98;77.37;98793.38;5102131;28;20355;-62
2022/07/25 01:36:32;;;;;;;10.35;7.88;;;;;;;20.89;77.71;98787.03;5104104;28;20042;-62
2022/07/25 01:38:58;;;;;;;11.82;8.52;;;;;;;20.95;77.34;98794.47;5104137;28;20023;-62
2022/07/25 01:41:23;;;;;;;8.93;8.02;;;;;;;20.99;77.59;98798.53;5085622;28;20028;-63
2022/07/25 01:43:49;;;;;;;9.90;8.27;;;;;;;20.89;77.62;98784.41;5102920;28;20051;-62
2022/07/25 01:46:15;;;;;;;10.55;8.57;;;;;;;20.97;77.59;98800.44;5108263;28;20032;-62
2022/07/25 01:48:40;;;;;;;12.63;7.97;;;;;;;20.94;77.44;98794.59;5103755;28;20020;-62
2022/07/25 01:51:07;;;;;;;8.80;7.90;;;;;;;20.92;77.52;98794.72;5103479;28;20297;-62
2022/07/25 01:53:32;;;;;;;9.95;8.32;;;;;;;20.83;78.10;98801.50;5103871;28;20073;-62
2022/07/25 01:55:59;;;;;;;9.00;8.10;;;;;;;20.79;77.95;98784.31;5103956;28;20023;-62
2022/07/25 01:58:25;;;;;;;9.75;8.23;;;;;;;20.73;78.24;98790.03;5103710;28;20534;-62
2022/07/25 02:00:50;;;;;;;9.77;8.23;;;;;;;20.74;78.55;98796.16;5103520;28;20020;-62
2022/07/25 02:03:31;;;;;;;9.13;8.23;;;;;;;20.76;78.84;98796.84;5103459;28;20024;-62
2022/07/25 02:06:03;;;;;;;12.88;8.23;;;;;;;20.73;78.60;98800.56;5103626;28;20035;-62
2022/07/25 02:08:30;;;;;;;8.15;7.43;;;;;;;20.72;78.29;98801.50;5103770;28;20028;-62
2022/07/25 02:10:57;;;;;;;10.52;8.70;;;;;;;20.75;77.57;98805.69;5102387;28;20028;-62
2022/07/25 02:13:23;;;;;;;9.98;8.35;;;;;;;20.78;77.21;98806.31;5103563;28;20217;-62
2022/07/25 02:16:09;;;;;;;10.75;8.30;;;;;;;20.80;77.73;98798.28;5102519;28;20032;-62
2022/07/25 02:18:35;;;;;;;8.05;7.25;;;;;;;20.80;77.67;98800.94;5103322;28;20036;-62
2022/07/25 02:21:01;;;;;;;10.48;7.70;;;;;;;20.78;78.28;98798.41;5103375;28;20015;-62
2022/07/25 02:23:27;;;;;;;10.82;7.82;;;;;;;20.59;77.86;98759.50;5103327;28;20061;-62
2022/07/25 02:25:52;;;;;;;8.55;7.53;;;;;;;20.79;77.78;98792.19;5103184;28;20186;-62
2022/07/25 02:28:18;;;;;;;8.70;7.53;;;;;;;20.84;77.70;98787.41;5103355;28;20316;-62
2022/07/25 02:30:43;;;;;;;10.63;7.95;;;;;;;20.90;77.68;98793.97;5102840;28;20055;-61
2022/07/25 02:33:09;;;;;;;16.27;8.95;;;;;;;20.93;77.82;98795.53;5103238;28;20031;-61
2022/07/25 02:35:35;;;;;;;11.95;8.60;;;;;;;20.97;77.92;98795.16;5103086;28;20024;-61
2022/07/25 02:38:00;;;;;;;13.18;8.32;;;;;;;20.96;78.25;98793.47;5103073;28;20035;-62
2022/07/25 02:40:26;;;;;;;10.85;8.80;;;;;;;21.04;77.95;98792.88;5102699;28;20100;-63
2022/07/25 02:42:51;;;;;;;13.77;8.85;;;;;;;21.07;77.84;98797.09;5101812;28;20074;-62
2022/07/25 02:45:17;;;;;;;10.45;8.43;;;;;;;21.12;78.08;98801.03;5106911;28;20030;-62
2022/07/25 02:47:43;;;;;;;9.52;7.97;;;;;;;21.11;77.58;98782.72;5101538;28;20020;-62
2022/07/25 02:50:09;;;;;;;11.52;8.00;;;;;;;21.20;77.88;98795.97;5102743;28;20090;-62
2022/07/25 02:52:34;;;;;;;9.52;7.72;;;;;;;21.27;77.54;98798.13;5102715;28;20204;-62
2022/07/25 02:55:00;;;;;;;8.95;8.00;;;;;;;21.33;77.58;98794.97;5102710;28;20023;-62
2022/07/25 02:57:25;;;;;;;11.00;8.95;;;;;;;21.35;77.08;98788.63;5102914;28;20035;-63
2022/07/25 02:59:51;;;;;;;12.60;10.50;;;;;;;21.46;76.91;98789.56;5088961;28;20017;-63
2022/07/25 03:02:18;;;;;;;17.77;12.45;;;;;;;21.48;76.72;98785.84;5102653;28;20032;-63
2022/07/25 03:04:43;;;;;;;15.20;9.82;;;;;;;21.48;76.21;98790.28;5101296;28;20051;-63
2022/07/25 03:07:09;;;;;;;9.57;8.57;;;;;;;21.52;76.52;98786.44;5102589;28;20035;-63
2022/07/25 03:09:34;;;;;;;12.57;9.73;;;;;;;21.59;75.98;98792.06;5102538;28;20024;-64
2022/07/25 03:12:00;;;;;;;12.55;7.38;;;;;;;21.64;74.90;98792.53;5102269;28;20225;-63
2022/07/25 03:14:25;;;;;;;11.65;9.40;;;;;;;21.69;74.70;98785.91;5102579;28;20058;-63
2022/07/25 03:16:52;;;;;;;10.73;7.28;;;;;;;21.82;73.81;98793.66;5102334;28;20031;-63
2022/07/25 03:19:17;;;;;;;11.68;7.70;;;;;;;21.80;73.91;98776.28;5102342;28;20070;-63
2022/07/25 03:21:44;;;;;;;10.32;7.18;;;;;;;21.91;74.03;98792.06;5102245;28;20023;-63
2022/07/25 03:24:10;;;;;;;8.88;7.32;;;;;;;21.95;73.71;98788.19;5102153;28;20038;-63
2022/07/25 03:26:36;;;;;;;10.63;6.70;;;;;;;22.04;73.45;98787.41;5102266;28;20024;-63
2022/07/25 03:29:02;;;;;;;7.68;6.72;;;;;;;22.09;73.26;98784.41;5088059;28;20085;-63
2022/07/25 03:31:27;;;;;;;7.43;6.38;;;;;;;22.15;72.88;98789.16;5097410;28;20044;-63
2022/07/25 03:33:53;;;;;;;7.88;6.30;;;;;;;22.15;73.33;98791.81;5102345;28;20100;-63
2022/07/25 03:36:18;;;;;;;8.23;7.22;;;;;;;22.21;73.08;98793.09;5102383;28;20020;-63
2022/07/25 03:38:44;;;;;;;7.80;7.00;;;;;;;22.09;73.42;98784.41;5102156;28;20054;-63
2022/07/25 03:41:11;;;;;;;7.40;6.22;;;;;;;22.20;73.13;98783.50;5102203;28;20225;-61
2022/07/25 03:43:36;;;;;;;7.60;6.47;;;;;;;22.29;73.38;98780.09;5102334;28;20028;-62
2022/07/25 03:46:02;;;;;;;7.13;6.38;;;;;;;22.38;72.80;98787.25;5102123;28;20115;-63
2022/07/25 03:48:27;;;;;;;9.30;6.75;;;;;;;22.44;72.55;98785.06;5102065;28;20233;-64
2022/07/25 03:50:55;;;;;;;10.60;7.00;;;;;;;22.26;72.00;98748.69;5101913;28;20024;-63
2022/07/25 03:53:20;;;;;;;9.00;6.43;;;;;;;22.58;72.04;98790.00;5102319;28;20087;-63
2022/07/25 03:55:46;;;;;;;7.60;6.53;;;;;;;22.61;72.28;98788.88;5102404;28;20077;-63
2022/07/25 03:58:12;;;;;;;10.63;6.68;;;;;;;22.67;72.05;98788.34;5106112;28;20047;-63
2022/07/25 04:00:37;;;;;;;7.78;6.45;;;;;;;22.67;72.10;98773.34;5105504;28;20052;-62
2022/07/25 04:03:03;;;;;;;7.60;6.70;;;;;;;22.85;71.72;98792.03;5104809;28;20325;-61
2022/07/25 04:05:29;;;;;;;7.82;7.03;;;;;;;22.97;70.67;98784.00;5105369;28;20027;-61
2022/07/25 04:07:55;;;;;;;9.77;7.05;;;;;;;22.96;70.56;98774.41;5106222;28;20091;-63
2022/07/25 04:10:20;;;;;;;8.60;6.88;;;;;;;22.91;70.96;98765.09;5104209;28;20028;-62
2022/07/25 04:12:46;;;;;;;7.57;6.63;;;;;;;22.92;71.24;98779.97;5105549;28;20069;-63
2022/07/25 04:15:12;;;;;;;9.32;6.65;;;;;;;22.92;71.36;98772.03;5105888;28;20083;-62
2022/07/25 04:17:37;;;;;;;7.60;6.78;;;;;;;23.05;70.86;98781.53;5105795;28;20286;-61
2022/07/25 04:20:04;;;;;;;7.63;6.75;;;;;;;23.01;71.41;98772.22;5105707;28;20024;-62
2022/07/25 04:22:30;;;;;;;8.90;6.60;;;;;;;23.12;70.83;98777.41;5104118;28;20209;-61
2022/07/25 04:24:56;;;;;;;10.82;6.72;;;;;;;23.17;71.15;98777.81;5104433;28;20026;-62
2022/07/25 04:27:21;;;;;;;9.65;7.20;;;;;;;23.21;70.24;98773.13;5103580;28;20016;-63
2022/07/25 04:29:47;;;;;;;8.55;6.80;;;;;;;23.19;70.63;98775.91;5090052;28;20040;-63
2022/07/25 04:32:13;;;;;;;8.98;6.95;;;;;;;23.25;70.59;98785.91;5104076;28;20027;-62
2022/07/25 04:34:39;;;;;;;7.18;6.47;;;;;;;23.33;70.84;98779.09;5105159;28;20028;-62
2022/07/25 04:37:04;;;;;;;8.68;6.43;;;;;;;23.35;70.80;98771.91;5105193;28;20051;-62
2022/07/25 04:39:30;;;;;;;10.68;6.70;;;;;;;23.40;71.01;98775.81;5092879;28;20043;-62
2022/07/25 04:41:56;;;;;;;11.95;7.32;;;;;;;23.37;70.68;98767.28;5105034;28;20036;-62
2022/07/25 04:44:21;;;;;;;7.15;6.40;;;;;;;23.28;69.47;98750.47;5105225;28;20318;-62
2022/07/25 04:46:47;;;;;;;8.02;6.72;;;;;;;23.53;69.53;98777.31;5105061;28;20020;-61
2022/07/25 04:49:12;;;;;;;8.23;6.30;;;;;;;23.53;70.43;98772.88;5097306;28;20332;-62
2022/07/25 04:51:38;;;;;;;7.57;6.78;;;;;;;23.60;70.09;98779.28;5102988;28;20091;-62
2022/07/25 04:54:04;;;;;;;8.65;6.10;;;;;;;23.65;70.50;98784.16;5104785;28;20027;-62
2022/07/25 04:56:29;;;;;;;8.23;6.13;;;;;;;23.70;69.33;98783.72;5103562;28;20020;-64
2022/07/25 04:58:55;;;;;;;8.18;6.20;;;;;;;23.76;68.88;98778.72;5104362;28;20024;-63
2022/07/25 05:01:21;;;;;;;6.50;5.93;;;;;;;23.92;68.77;98780.81;5097852;28;20107;-62
2022/07/25 05:03:47;;;;;;;7.13;6.43;;;;;;;23.99;68.71;98781.09;5092612;28;20060;-63
2022/07/25 05:06:13;;;;;;;8.40;6.45;;;;;;;24.04;68.89;98773.59;5101134;28;20327;-62
2022/07/25 05:08:38;;;;;;;9.27;6.38;;;;;;;24.32;67.87;98781.59;5094454;28;20043;-62
2022/07/25 05:11:04;;;;;;;8.82;6.70;;;;;;;24.20;67.78;98782.72;5091480;28;20025;-63
2022/07/25 05:13:29;;;;;;;7.22;6.50;;;;;;;24.29;68.08;98785.34;5093888;28;20524;-62
2022/07/25 05:15:55;;;;;;;7.97;7.03;;;;;;;24.40;67.07;98783.50;5097128;28;20313;-63
2022/07/25 05:18:21;;;;;;;12.05;7.13;;;;;;;24.45;67.16;98781.28;5096781;28;20034;-63
2022/07/25 05:20:46;;;;;;;10.05;6.20;;;;;;;24.51;67.13;98778.03;5094679;28;20209;-63
2022/07/25 05:23:12;;;;;;;8.90;6.93;;;;;;;24.68;66.68;98781.78;5096542;28;20028;-62
2022/07/25 05:25:38;;;;;;;13.05;6.22;;;;;;;24.78;65.80;98768.50;5096720;28;20032;-62
2022/07/25 05:28:04;;;;;;;7.45;6.72;;;;;;;24.85;65.95;98782.00;5097525;28;20316;-63
2022/07/25 05:30:29;;;;;;;9.65;6.70;;;;;;;24.86;65.25;98783.66;5100609;28;20066;-62
2022/07/25 05:32:55;;;;;;;7.68;6.25;;;;;;;24.83;64.92;98784.78;5094558;28;20024;-63
2022/07/25 05:35:20;;;;;;;10.88;6.82;;;;;;;24.86;65.69;98779.19;5094163;28;20240;-63
2022/07/25 05:37:46;;;;;;;8.82;6.55;;;;;;;24.77;65.21;98786.22;5094303;28;20066;-64
2022/07/25 05:40:12;;;;;;;7.15;6.45;;;;;;;24.78;64.02;98779.09;5096136;28;20024;-63
2022/07/25 05:42:38;;;;;;;9.25;6.72;;;;;;;24.83;64.51;98778.63;5097932;28;20024;-64
2022/07/25 05:45:04;;;;;;;8.98;6.72;;;;;;;24.93;64.29;98769.69;5095416;28;20035;-64
2022/07/25 05:47:30;;;;;;;9.18;7.40;;;;;;;24.97;64.16;98781.66;5100304;28;20023;-64
2022/07/25 05:49:56;;;;;;;8.00;6.20;;;;;;;25.03;63.82;98779.41;5099404;28;20065;-64
2022/07/25 05:52:21;;;;;;;7.47;6.68;;;;;;;25.09;64.73;98774.31;5096433;28;20271;-64
2022/07/25 05:54:47;;;;;;;7.50;6.80;;;;;;;25.10;63.96;98783.94;5092837;28;20020;-64
2022/07/25 05:57:13;;;;;;;8.40;6.68;;;;;;;25.06;64.84;98779.09;5089905;28;20078;-64
2022/07/25 05:59:38;;;;;;;8.38;6.50;;;;;;;25.21;64.59;98768.81;5096612;28;20264;-64
2022/07/25 06:02:04;;;;;;;9.05;7.50;;;;;;;25.20;64.02;98765.34;5097760;28;20027;-65
2022/07/25 06:04:29;;;;;;;6.78;6.15;;;;;;;25.32;64.63;98765.97;5094666;28;20027;-64
2022/07/25 06:06:55;;;;;;;8.25;7.40;;;;;;;25.28;65.29;98757.47;5095288;28;20071;-64
2022/07/25 06:09:22;;;;;;;9.13;6.68;;;;;;;25.32;64.84;98768.63;5094859;28;20027;-64
2022/07/25 06:11:49;;;;;;;8.35;7.50;;;;;;;25.35;64.41;98770.16;5093030;28;20043;-65
2022/07/25 06:14:15;;;;;;;12.60;7.20;;;;;;;25.32;64.46;98766.84;5091468;28;20092;-64
2022/07/25 06:16:41;;;;;;;10.43;7.25;;;;;;;25.40;64.50;98766.06;5102811;28;20031;-64
2022/07/25 06:19:06;;;;;;;10.88;6.80;;;;;;;25.44;63.99;98766.59;5102662;28;20073;-64
2022/07/25 06:21:32;;;;;;;9.98;7.20;;;;;;;25.31;65.12;98765.16;5079373;28;20024;-64
2022/07/25 06:23:58;;;;;;;16.45;10.40;;;;;;;25.14;64.85;98761.47;5101967;28;20372;-65
2022/07/25 06:26:24;;;;;;;38.92;31.67;;;;;;;25.21;64.89;98758.22;5102302;28;20023;-64
2022/07/25 06:28:50;;;;;;;13.57;10.70;;;;;;;25.31;64.81;98761.63;5098521;28;20048;-64
2022/07/25 06:31:16;;;;;;;15.70;9.07;;;;;;;25.39;63.83;98763.56;5102136;28;20140;-64
2022/07/25 06:33:42;;;;;;;12.48;9.02;;;;;;;25.48;62.68;98752.03;5099960;28;20027;-65
2022/07/25 06:36:08;;;;;;;9.82;8.52;;;;;;;25.38;62.82;98761.91;5094396;28;20028;-65
2022/07/25 06:38:33;;;;;;;8.88;7.22;;;;;;;25.51;62.06;98759.72;5089279;28;20028;-64
2022/07/25 06:40:59;;;;;;;11.63;7.72;;;;;;;25.64;62.58;98762.81;5095738;28;20344;-65
2022/07/25 06:43:24;;;;;;;12.13;7.97;;;;;;;25.77;62.49;98758.94;5095044;28;20027;-65
2022/07/25 06:45:50;;;;;;;9.00;7.82;;;;;;;25.83;62.49;98760.97;5095667;28;20016;-65
2022/07/25 06:48:16;;;;;;;14.30;8.40;;;;;;;25.84;60.82;98752.03;5095106;28;20031;-65
2022/07/25 06:50:42;;;;;;;13.77;7.63;;;;;;;25.95;61.22;98754.44;5101540;28;20040;-65
2022/07/25 06:53:08;;;;;;;10.50;8.35;;;;;;;26.01;61.21;98753.03;5094226;28;20358;-64
2022/07/25 06:55:34;;;;;;;9.38;8.27;;;;;;;25.91;60.10;98758.38;5095713;28;20072;-64
2022/07/25 06:57:59;;;;;;;12.50;7.85;;;;;;;26.05;60.16;98766.78;5095325;28;20373;-64
2022/07/25 07:00:25;;;;;;;13.88;7.78;;;;;;;26.20;60.34;98751.97;5095399;28;20376;-64
2022/07/25 07:02:57;;;;;;;11.73;7.85;;;;;;;26.35;59.92;98761.03;5075572;28;20039;-63
2022/07/25 07:05:28;;;;;;;9.93;8.00;;;;;;;26.44;59.68;98753.94;5094010;28;20019;-64
2022/07/25 07:07:54;;;;;;;7.70;6.75;;;;;;;26.21;59.01;98720.94;5094756;28;20028;-65
2022/07/25 07:10:20;;;;;;;10.30;7.15;;;;;;;26.37;59.52;98757.38;5095107;28;20349;-64
2022/07/25 07:12:47;;;;;;;12.82;6.72;;;;;;;26.25;59.46;98754.16;5096649;28;20073;-63
2022/07/25 07:15:12;;;;;;;11.05;8.40;;;;;;;26.29;59.87;98756.31;5102795;28;20031;-63
2022/07/25 07:17:38;;;;;;;9.98;6.78;;;;;;;26.29;59.79;98756.31;5098228;28;20687;-63
2022/07/25 07:20:06;;;;;;;12.98;8.10;;;;;;;26.31;60.27;98756.19;5101737;28;20056;-63
2022/07/25 07:22:41;;;;;;;8.60;7.70;;;;;;;26.24;61.03;98753.31;5094603;28;20013;-63
2022/07/25 07:25:07;;;;;;;9.90;6.90;;;;;;;26.08;62.80;98764.69;5099443;28;20074;-64
2022/07/25 07:27:33;;;;;;;14.40;8.88;;;;;;;26.07;61.39;98759.53;5116094;28;20114;-63
2022/07/25 07:29:58;;;;;;;10.10;8.10;;;;;;;26.03;61.35;98755.50;5102351;28;20161;-64
2022/07/25 07:32:24;;;;;;;14.32;7.40;;;;;;;25.91;62.95;98761.03;5099044;28;20253;-63
2022/07/25 07:34:49;;;;;;;9.18;7.80;;;;;;;25.93;62.70;98771.50;5099221;28;20025;-62
2022/07/25 07:37:15;;;;;;;11.43;7.85;;;;;;;25.82;60.91;98762.81;5098420;28;20028;-62
2022/07/25 07:39:41;;;;;;;8.27;7.40;;;;;;;25.86;59.47;98763.31;5101438;28;20024;-62
2022/07/25 07:42:06;;;;;;;11.50;8.00;;;;;;;25.91;59.79;98769.00;5100353;28;20043;-64
2022/07/25 07:44:32;;;;;;;8.38;7.50;;;;;;;25.98;60.07;98767.41;5101403;28;20042;-62
2022/07/25 07:47:01;;;;;;;7.43;6.72;;;;;;;25.92;60.11;98760.03;5097843;28;20032;-62
2022/07/25 07:49:28;;;;;;;14.90;8.13;;;;;;;25.88;61.49;98763.16;5097030;28;20216;-61
2022/07/25 07:51:54;;;;;;;10.55;7.90;;;;;;;25.81;61.60;98766.44;5091812;28;20020;-61
2022/07/25 07:57:03;;;;;;;12.93;9.77;;;;;;;25.87;61.71;98764.97;5099068;28;20032;-61
2022/07/25 07:59:29;;;;;;;10.75;7.82;;;;;;;25.95;62.68;98767.72;5100700;28;20081;-61
2022/07/25 08:01:54;;;;;;;12.10;7.93;;;;;;;26.06;62.92;98765.81;5100177;28;20028;-62
2022/07/25 08:04:20;;;;;;;8.98;7.57;;;;;;;26.26;61.75;98767.25;5098286;28;20032;-61
2022/07/25 08:06:46;;;;;;;7.70;6.72;;;;;;;26.35;61.17;98760.19;5088432;28;20344;-61
2022/07/25 08:09:11;;;;;;;8.52;7.72;;;;;;;26.04;59.28;98728.81;5101002;28;20027;-61
2022/07/25 08:11:37;;;;;;;7.90;7.10;;;;;;;26.47;59.76;98758.09;5100903;28;20028;-61
2022/07/25 08:14:04;;;;;;;10.23;7.22;;;;;;;26.46;58.15;98761.75;5099416;28;20091;-60
2022/07/25 08:16:29;;;;;;;10.95;7.53;;;;;;;26.47;58.91;98764.22;5101229;28;20052;-61
2022/07/25 08:18:55;;;;;;;9.68;6.85;;;;;;;26.47;59.46;98768.72;5098855;28;20089;-61
2022/07/25 08:21:20;;;;;;;11.90;7.15;;;;;;;26.29;59.92;98763.47;5099251;28;20023;-61
2022/07/25 08:23:47;;;;;;;10.93;6.82;;;;;;;26.28;60.42;98762.66;5102026;28;20020;-61
2022/07/25 08:26:15;;;;;;;9.68;7.13;;;;;;;26.26;60.68;98764.59;5092740;28;20040;-61
2022/07/25 08:28:41;;;;;;;9.95;7.00;;;;;;;26.31;60.30;98757.00;5096627;28;20028;-61
2022/07/25 08:31:07;;;;;;;10.30;7.00;;;;;;;26.30;59.04;98762.50;5101757;28;20058;-61
2022/07/25 08:33:33;;;;;;;9.98;7.10;;;;;;;26.37;57.42;98760.03;5101594;28;20319;-61
2022/07/25 08:35:58;;;;;;;9.73;7.35;;;;;;;26.43;58.06;98757.56;5101762;28;20034;-62
2022/07/25 08:38:26;;;;;;;9.27;6.72;;;;;;;26.57;58.55;98772.09;5101309;28;20094;-62
2022/07/25 08:40:53;;;;;;;9.20;7.35;;;;;;;26.44;56.77;98759.25;5101874;28;20035;-61
2022/07/25 08:43:19;;;;;;;7.93;6.90;;;;;;;26.47;57.59;98771.38;5104831;28;20213;-61
2022/07/25 08:45:49;;;;;;;7.63;6.80;;;;;;;26.56;57.12;98773.06;5100893;28;20332;-61
2022/07/25 08:48:21;;;;;;;9.27;7.10;;;;;;;26.43;57.21;98760.22;5087887;28;20061;-61
2022/07/25 08:50:47;;;;;;;9.57;6.15;;;;;;;26.50;57.57;98769.22;5105526;28;20043;-61
2022/07/25 08:53:14;;;;;;;7.03;6.30;;;;;;;26.27;58.45;98734.44;5087248;28;20220;-61
2022/07/25 08:55:42;;;;;;;9.05;7.00;;;;;;;26.41;58.21;98770.19;5101498;28;20023;-61
2022/07/25 08:58:10;;;;;;;8.73;6.55;;;;;;;26.16;59.00;98743.47;5103838;28;20059;-61
2022/07/25 09:00:35;;;;;;;9.40;7.28;;;;;;;26.30;58.87;98768.63;5104176;28;20085;-60
2022/07/25 09:03:02;;;;;;;8.27;6.63;;;;;;;26.24;59.14;98766.59;5100364;28;20032;-60
2022/07/25 09:05:30;;;;;;;12.98;7.38;;;;;;;26.21;60.25;98768.72;5103575;28;20036;-61
2022/07/25 09:07:57;;;;;;;10.35;6.78;;;;;;;26.23;60.68;98772.06;5104884;28;20020;-61
2022/07/25 09:10:27;;;;;;;17.02;12.82;;;;;;;26.40;59.84;98768.50;5103574;28;20016;-61
2022/07/25 09:13:01;;;;;;;10.73;8.40;;;;;;;26.57;59.14;98780.06;5103789;28;20259;-61
2022/07/25 09:15:32;;;;;;;11.05;7.97;;;;;;;26.43;58.82;98740.81;5104893;28;20087;-61
2022/07/25 09:17:59;;;;;;;8.70;7.17;;;;;;;26.43;58.32;98725.72;5104706;28;20059;-62
2022/07/25 09:20:40;;;;;;;10.30;8.05;;;;;;;26.58;59.18;98768.44;5104995;28;20413;-62
2022/07/25 09:23:06;;;;;;;11.35;9.38;;;;;;;26.44;59.37;98758.44;5104522;28;20091;-62
2022/07/25 09:25:32;;;;;;;12.00;9.23;;;;;;;26.40;59.58;98757.88;5104731;28;20055;-61
2022/07/25 09:28:17;;;;;;;10.90;8.40;;;;;;;26.51;59.50;98765.59;5104948;28;20035;-61
2022/07/25 09:30:58;;;;;;;11.95;8.20;;;;;;;26.68;57.93;98763.03;5090682;28;20116;-62
2022/07/25 09:33:25;;;;;;;8.88;7.63;;;;;;;26.82;58.14;98761.59;5092770;28;20099;-64
2022/07/25 09:35:53;;;;;;;11.77;7.45;;;;;;;26.91;57.84;98752.69;5104667;28;20048;-64
2022/07/25 09:38:21;;;;;;;15.30;8.10;;;;;;;26.75;56.98;98765.88;5101215;28;20287;-63
2022/07/25 09:40:58;;;;;;;7.70;6.90;;;;;;;26.75;57.21;98708.28;5091621;28;20021;-62
2022/07/25 09:43:38;;;;;;;9.32;7.68;;;;;;;27.04;56.70;98760.19;5095850;28;20260;-62
2022/07/25 09:46:04;;;;;;;9.75;7.13;;;;;;;27.04;54.94;98745.06;5108700;28;20088;-63
2022/07/25 09:48:31;;;;;;;9.63;7.60;;;;;;;27.10;54.74;98753.38;5102208;28;20111;-62
2022/07/25 09:50:57;;;;;;;7.88;6.50;;;;;;;27.14;56.81;98750.22;5088202;28;20103;-61
2022/07/25 09:53:23;;;;;;;8.80;7.90;;;;;;;27.22;55.98;98752.06;5102247;28;20305;-61
2022/07/25 09:55:49;;;;;;;8.88;7.15;;;;;;;27.26;55.25;98757.91;5102560;28;20217;-60
2022/07/25 09:58:14;;;;;;;9.40;6.95;;;;;;;27.24;55.53;98752.75;5096915;28;20025;-63
2022/07/25 10:00:41;;;;;;;7.53;6.82;;;;;;;27.12;56.27;98746.91;5081219;28;20264;-62
2022/07/25 10:03:19;;;;;;;8.32;6.68;;;;;;;27.24;54.29;98760.72;5092382;28;20224;-62
2022/07/25 10:05:56;;;;;;;9.20;6.88;;;;;;;27.08;53.53;98753.56;5102915;28;20032;-61
2022/07/25 10:08:23;;;;;;;8.80;6.25;;;;;;;26.81;54.05;98760.78;5100798;28;20032;-62
2022/07/25 10:10:49;;;;;;;6.90;6.22;;;;;;;26.69;54.69;98768.19;5100557;28;20050;-63
2022/07/25 10:13:27;;;;;;;7.07;6.38;;;;;;;26.64;54.98;98770.47;5094003;28;20032;-62
2022/07/25 10:15:53;;;;;;;6.60;5.90;;;;;;;26.71;55.33;98760.06;5089976;28;20042;-62
2022/07/25 10:18:24;;;;;;;8.80;6.18;;;;;;;26.40;55.84;98722.56;5097516;28;20032;-61
2022/07/25 10:20:52;;;;;;;8.77;6.65;;;;;;;26.46;56.92;98745.81;5099670;28;20028;-61
2022/07/25 10:23:26;;;;;;;6.53;5.93;;;;;;;26.47;56.70;98708.47;5098507;28;20023;-62
2022/07/25 10:26:12;;;;;;;11.93;6.25;;;;;;;26.60;54.66;98707.19;5091957;28;20051;-61
2022/07/25 10:28:45;;;;;;;6.15;5.55;;;;;;;26.92;53.83;98743.72;5096592;28;20024;-61
2022/07/25 10:31:35;;;;;;;6.45;5.85;;;;;;;26.97;53.91;98729.94;5097030;28;20039;-62
2022/07/25 10:34:05;;;;;;;7.18;6.47;;;;;;;27.11;54.05;98733.78;5088759;28;20129;-62
2022/07/25 10:36:54;;;;;;;8.23;6.40;;;;;;;27.11;54.10;98733.78;5097759;28;20027;-61
2022/07/25 10:39:21;;;;;;;7.32;6.68;;;;;;;27.06;54.70;98725.47;5096452;28;20043;-63
2022/07/25 10:42:01;;;;;;;6.85;6.18;;;;;;;27.17;54.33;98725.97;5088532;28;20034;-61
2022/07/25 10:44:38;;;;;;;8.73;7.13;;;;;;;27.35;54.41;98733.03;5088719;28;20032;-62
2022/07/25 10:47:15;;;;;;;9.95;7.20;;;;;;;27.54;53.95;98740.69;5099968;28;20308;-62
2022/07/25 10:49:44;;;;;;;7.40;6.80;;;;;;;27.48;55.24;98744.00;5093553;28;20020;-64
2022/07/25 10:52:18;;;;;;;9.60;7.07;;;;;;;27.49;56.00;98745.69;5087719;28;20051;-63
2022/07/25 10:54:59;;;;;;;6.88;6.20;;;;;;;27.23;54.14;98716.50;5094499;28;20031;-64
2022/07/25 10:57:26;;;;;;;7.20;6.50;;;;;;;27.44;55.00;98741.84;5100766;28;20024;-63
2022/07/25 10:59:52;;;;;;;8.65;7.53;;;;;;;27.41;54.43;98737.69;5085699;28;20024;-63
2022/07/25 11:02:18;;;;;;;7.55;6.85;;;;;;;27.54;53.79;98734.53;5091199;28;20078;-63
2022/07/25 11:05:01;;;;;;;7.35;6.65;;;;;;;27.46;54.70;98699.94;5089768;28;20028;-62
2022/07/25 11:07:34;;;;;;;7.63;6.85;;;;;;;27.64;54.88;98729.88;5083599;28;20047;-62
2022/07/25 11:10:03;;;;;;;11.10;6.78;;;;;;;27.36;55.28;98729.34;5097149;28;20036;-62
2022/07/25 11:12:30;;;;;;;8.88;7.10;;;;;;;27.42;55.36;98731.38;5102867;28;20024;-62
2022/07/25 11:15:06;;;;;;;10.68;7.18;;;;;;;27.36;55.08;98714.25;5102918;28;20031;-62
2022/07/25 11:17:33;;;;;;;11.20;6.50;;;;;;;27.55;54.37;98728.22;5099245;28;20035;-62
2022/07/25 11:20:10;;;;;;;7.97;7.15;;;;;;;27.21;53.40;98716.69;5098996;28;20028;-62
2022/07/25 11:22:35;;;;;;;10.55;7.35;;;;;;;27.37;54.86;98731.84;5097164;28;20309;-62
2022/07/25 11:25:09;;;;;;;7.50;6.72;;;;;;;27.19;56.09;98683.28;5094599;28;20031;-62
2022/07/25 11:27:34;;;;;;;8.40;7.47;;;;;;;27.37;56.70;98717.72;5098150;28;20064;-62
2022/07/25 11:30:10;;;;;;;8.68;7.45;;;;;;;27.32;56.10;98720.88;5098716;28;20267;-61
2022/07/25 11:32:44;;;;;;;8.63;7.13;;;;;;;27.28;56.64;98716.00;5092846;28;20368;-62